sensor_id;sensor_type;location;lat;lon;timestamp;P1;durP1;ratioP1;P2;durP2;ratioP2
18411;SDS011;27097;51.738;19.472;2023-05-31T00:01:50;2.90;;;1.60;;
18411;SDS011;27097;51.738;19.472;2023-05-31T00:04:17;3.55;;;1.70;;
18411;SDS011;27097;51.738;19.472;2023-05-31T00:06:44;5.95;;;2.15;;
18411;SDS011;27097;51.738;19.472;2023-05-31T00:09:11;8.68;;;2.42;;
18411;SDS011;27097;51.738;19.472;2023-05-31T00:11:37;10.02;;;2.45;;
18411;SDS011;27097;51.738;19.472;2023-05-31T00:14:04;9.02;;;2.20;;
18411;SDS011;27097;51.738;19.472;2023-05-31T00:16:31;9.43;;;2.00;;
18411;SDS011;27097;51.738;19.472;2023-05-31T00:18:59;6.65;;;2.03;;
18411;SDS011;27097;51.738;19.472;2023-05-31T00:21:26;5.53;;;1.90;;
18411;SDS011;27097;51.738;19.472;2023-05-31T00:23:56;7.78;;;1.98;;
18411;SDS011;27097;51.738;19.472;2023-05-31T00:26:23;7.75;;;2.20;;
18411;SDS011;27097;51.738;19.472;2023-05-31T00:28:50;9.65;;;2.40;;
18411;SDS011;27097;51.738;19.472;2023-05-31T00:31:16;11.85;;;2.28;;
18411;SDS011;27097;51.738;19.472;2023-05-31T00:33:43;6.13;;;1.90;;
18411;SDS011;27097;51.738;19.472;2023-05-31T00:36:12;5.15;;;1.95;;
18411;SDS011;27097;51.738;19.472;2023-05-31T00:38:41;8.48;;;1.88;;
18411;SDS011;27097;51.738;19.472;2023-05-31T00:41:09;8.13;;;2.05;;
18411;SDS011;27097;51.738;19.472;2023-05-31T00:43:36;5.55;;;1.80;;
18411;SDS011;27097;51.738;19.472;2023-05-31T00:46:06;7.13;;;2.15;;
18411;SDS011;27097;51.738;19.472;2023-05-31T00:48:35;3.30;;;1.80;;
18411;SDS011;27097;51.738;19.472;2023-05-31T00:51:04;6.18;;;1.70;;
18411;SDS011;27097;51.738;19.472;2023-05-31T00:53:33;4.55;;;2.00;;
18411;SDS011;27097;51.738;19.472;2023-05-31T00:56:00;6.07;;;2.28;;
18411;SDS011;27097;51.738;19.472;2023-05-31T00:58:27;5.47;;;2.20;;
18411;SDS011;27097;51.738;19.472;2023-05-31T01:00:55;3.95;;;1.70;;
18411;SDS011;27097;51.738;19.472;2023-05-31T01:03:22;3.85;;;1.70;;
18411;SDS011;27097;51.738;19.472;2023-05-31T01:05:49;9.27;;;2.33;;
18411;SDS011;27097;51.738;19.472;2023-05-31T01:08:16;3.60;;;1.80;;
18411;SDS011;27097;51.738;19.472;2023-05-31T01:10:45;3.85;;;1.80;;
18411;SDS011;27097;51.738;19.472;2023-05-31T01:13:13;6.75;;;1.67;;
18411;SDS011;27097;51.738;19.472;2023-05-31T01:15:49;5.47;;;1.92;;
18411;SDS011;27097;51.738;19.472;2023-05-31T01:18:20;4.13;;;1.70;;
18411;SDS011;27097;51.738;19.472;2023-05-31T01:20:57;4.60;;;1.75;;
18411;SDS011;27097;51.738;19.472;2023-05-31T01:23:34;7.47;;;1.80;;
18411;SDS011;27097;51.738;19.472;2023-05-31T01:29:07;5.10;;;1.80;;
18411;SDS011;27097;51.738;19.472;2023-05-31T01:31:36;4.97;;;1.73;;
18411;SDS011;27097;51.738;19.472;2023-05-31T01:34:05;3.63;;;1.70;;
18411;SDS011;27097;51.738;19.472;2023-05-31T01:36:32;3.25;;;1.80;;
18411;SDS011;27097;51.738;19.472;2023-05-31T01:39:00;3.05;;;1.80;;
18411;SDS011;27097;51.738;19.472;2023-05-31T01:41:28;4.90;;;1.60;;
18411;SDS011;27097;51.738;19.472;2023-05-31T01:43:58;4.57;;;1.73;;
18411;SDS011;27097;51.738;19.472;2023-05-31T01:46:26;3.47;;;1.58;;
18411;SDS011;27097;51.738;19.472;2023-05-31T01:48:53;4.43;;;1.95;;
18411;SDS011;27097;51.738;19.472;2023-05-31T01:51:21;6.13;;;1.55;;
18411;SDS011;27097;51.738;19.472;2023-05-31T01:53:49;7.78;;;1.73;;
18411;SDS011;27097;51.738;19.472;2023-05-31T01:56:16;5.38;;;1.65;;
18411;SDS011;27097;51.738;19.472;2023-05-31T01:58:46;4.13;;;1.67;;
18411;SDS011;27097;51.738;19.472;2023-05-31T02:01:15;5.70;;;1.90;;
18411;SDS011;27097;51.738;19.472;2023-05-31T02:03:44;4.72;;;1.73;;
18411;SDS011;27097;51.738;19.472;2023-05-31T02:06:11;3.22;;;1.55;;
18411;SDS011;27097;51.738;19.472;2023-05-31T02:08:38;5.93;;;1.60;;
18411;SDS011;27097;51.738;19.472;2023-05-31T02:11:06;5.72;;;1.77;;
18411;SDS011;27097;51.738;19.472;2023-05-31T02:13:33;3.25;;;1.55;;
18411;SDS011;27097;51.738;19.472;2023-05-31T02:16:00;3.63;;;1.80;;
18411;SDS011;27097;51.738;19.472;2023-05-31T02:18:29;5.40;;;1.73;;
18411;SDS011;27097;51.738;19.472;2023-05-31T02:20:57;4.65;;;1.85;;
18411;SDS011;27097;51.738;19.472;2023-05-31T02:23:24;4.93;;;1.95;;
18411;SDS011;27097;51.738;19.472;2023-05-31T02:25:51;5.72;;;1.80;;
18411;SDS011;27097;51.738;19.472;2023-05-31T02:28:20;3.15;;;1.52;;
18411;SDS011;27097;51.738;19.472;2023-05-31T02:30:52;3.70;;;1.92;;
18411;SDS011;27097;51.738;19.472;2023-05-31T02:33:20;5.25;;;1.80;;
18411;SDS011;27097;51.738;19.472;2023-05-31T02:35:48;4.13;;;1.80;;
18411;SDS011;27097;51.738;19.472;2023-05-31T02:38:15;4.43;;;1.52;;
18411;SDS011;27097;51.738;19.472;2023-05-31T02:40:42;6.28;;;2.00;;
18411;SDS011;27097;51.738;19.472;2023-05-31T02:43:09;4.88;;;1.58;;
18411;SDS011;27097;51.738;19.472;2023-05-31T02:45:36;3.58;;;1.80;;
18411;SDS011;27097;51.738;19.472;2023-05-31T02:48:03;3.88;;;1.90;;
18411;SDS011;27097;51.738;19.472;2023-05-31T02:50:30;2.97;;;1.73;;
18411;SDS011;27097;51.738;19.472;2023-05-31T02:52:59;4.40;;;1.55;;
18411;SDS011;27097;51.738;19.472;2023-05-31T02:55:29;3.30;;;1.80;;
18411;SDS011;27097;51.738;19.472;2023-05-31T02:57:56;3.70;;;1.65;;
18411;SDS011;27097;51.738;19.472;2023-05-31T03:00:23;5.80;;;2.13;;
18411;SDS011;27097;51.738;19.472;2023-05-31T03:02:50;5.75;;;2.08;;
18411;SDS011;27097;51.738;19.472;2023-05-31T03:05:18;5.65;;;1.83;;
18411;SDS011;27097;51.738;19.472;2023-05-31T03:07:45;7.18;;;1.80;;
18411;SDS011;27097;51.738;19.472;2023-05-31T03:10:14;3.22;;;1.60;;
18411;SDS011;27097;51.738;19.472;2023-05-31T03:12:41;3.70;;;1.73;;
18411;SDS011;27097;51.738;19.472;2023-05-31T03:15:08;4.38;;;1.65;;
18411;SDS011;27097;51.738;19.472;2023-05-31T03:17:35;3.15;;;1.60;;
18411;SDS011;27097;51.738;19.472;2023-05-31T03:20:03;3.70;;;1.50;;
18411;SDS011;27097;51.738;19.472;2023-05-31T03:22:33;4.55;;;2.00;;
18411;SDS011;27097;51.738;19.472;2023-05-31T03:25:00;5.13;;;1.92;;
18411;SDS011;27097;51.738;19.472;2023-05-31T03:27:29;6.47;;;1.70;;
18411;SDS011;27097;51.738;19.472;2023-05-31T03:29:56;3.60;;;1.70;;
18411;SDS011;27097;51.738;19.472;2023-05-31T03:32:23;5.35;;;1.70;;
18411;SDS011;27097;51.738;19.472;2023-05-31T03:34:50;6.53;;;2.20;;
18411;SDS011;27097;51.738;19.472;2023-05-31T03:37:16;2.58;;;1.67;;
18411;SDS011;27097;51.738;19.472;2023-05-31T03:39:43;3.63;;;1.77;;
18411;SDS011;27097;51.738;19.472;2023-05-31T03:42:10;2.67;;;1.50;;
18411;SDS011;27097;51.738;19.472;2023-05-31T03:44:38;3.13;;;1.70;;
18411;SDS011;27097;51.738;19.472;2023-05-31T03:47:06;2.85;;;1.48;;
18411;SDS011;27097;51.738;19.472;2023-05-31T03:49:33;3.83;;;1.50;;
18411;SDS011;27097;51.738;19.472;2023-05-31T03:52:00;3.47;;;1.70;;
18411;SDS011;27097;51.738;19.472;2023-05-31T03:54:27;3.80;;;1.70;;
18411;SDS011;27097;51.738;19.472;2023-05-31T03:56:55;3.65;;;1.50;;
18411;SDS011;27097;51.738;19.472;2023-05-31T03:59:22;4.65;;;1.77;;
18411;SDS011;27097;51.738;19.472;2023-05-31T04:01:50;3.03;;;1.73;;
18411;SDS011;27097;51.738;19.472;2023-05-31T04:04:17;3.25;;;1.80;;
18411;SDS011;27097;51.738;19.472;2023-05-31T04:06:43;3.45;;;1.60;;
18411;SDS011;27097;51.738;19.472;2023-05-31T04:09:10;4.05;;;1.73;;
18411;SDS011;27097;51.738;19.472;2023-05-31T04:11:37;2.67;;;1.70;;
18411;SDS011;27097;51.738;19.472;2023-05-31T04:14:04;5.00;;;1.77;;
18411;SDS011;27097;51.738;19.472;2023-05-31T04:16:31;5.50;;;1.77;;
18411;SDS011;27097;51.738;19.472;2023-05-31T04:18:59;2.88;;;1.67;;
18411;SDS011;27097;51.738;19.472;2023-05-31T04:21:26;3.92;;;1.70;;
18411;SDS011;27097;51.738;19.472;2023-05-31T04:23:53;3.60;;;2.00;;
18411;SDS011;27097;51.738;19.472;2023-05-31T04:26:20;3.80;;;2.00;;
18411;SDS011;27097;51.738;19.472;2023-05-31T04:28:47;4.10;;;1.70;;
18411;SDS011;27097;51.738;19.472;2023-05-31T04:31:16;4.32;;;1.75;;
18411;SDS011;27097;51.738;19.472;2023-05-31T04:33:43;3.33;;;1.52;;
18411;SDS011;27097;51.738;19.472;2023-05-31T04:36:12;2.92;;;1.63;;
18411;SDS011;27097;51.738;19.472;2023-05-31T04:38:39;7.03;;;1.83;;
18411;SDS011;27097;51.738;19.472;2023-05-31T04:41:06;4.97;;;1.88;;
18411;SDS011;27097;51.738;19.472;2023-05-31T04:43:34;3.47;;;1.67;;
18411;SDS011;27097;51.738;19.472;2023-05-31T04:46:04;2.88;;;1.70;;
18411;SDS011;27097;51.738;19.472;2023-05-31T04:48:34;3.92;;;1.70;;
18411;SDS011;27097;51.738;19.472;2023-05-31T04:51:01;4.40;;;1.70;;
18411;SDS011;27097;51.738;19.472;2023-05-31T04:53:31;4.30;;;1.50;;
18411;SDS011;27097;51.738;19.472;2023-05-31T04:55:59;2.58;;;1.42;;
18411;SDS011;27097;51.738;19.472;2023-05-31T04:58:29;5.85;;;1.52;;
18411;SDS011;27097;51.738;19.472;2023-05-31T05:00:56;3.63;;;1.70;;
18411;SDS011;27097;51.738;19.472;2023-05-31T05:03:25;3.95;;;1.55;;
18411;SDS011;27097;51.738;19.472;2023-05-31T05:05:52;3.97;;;1.65;;
18411;SDS011;27097;51.738;19.472;2023-05-31T05:08:19;3.72;;;1.67;;
18411;SDS011;27097;51.738;19.472;2023-05-31T05:10:47;2.20;;;1.52;;
18411;SDS011;27097;51.738;19.472;2023-05-31T05:13:14;4.25;;;1.90;;
18411;SDS011;27097;51.738;19.472;2023-05-31T05:15:42;6.82;;;1.90;;
18411;SDS011;27097;51.738;19.472;2023-05-31T05:18:08;3.08;;;1.70;;
18411;SDS011;27097;51.738;19.472;2023-05-31T05:20:35;3.75;;;1.92;;
18411;SDS011;27097;51.738;19.472;2023-05-31T05:23:02;5.13;;;1.63;;
18411;SDS011;27097;51.738;19.472;2023-05-31T05:25:32;3.85;;;1.55;;
18411;SDS011;27097;51.738;19.472;2023-05-31T05:28:00;4.95;;;1.90;;
18411;SDS011;27097;51.738;19.472;2023-05-31T05:30:27;5.13;;;1.73;;
18411;SDS011;27097;51.738;19.472;2023-05-31T05:32:54;3.53;;;1.70;;
18411;SDS011;27097;51.738;19.472;2023-05-31T05:35:21;4.57;;;1.67;;
18411;SDS011;27097;51.738;19.472;2023-05-31T05:37:48;6.22;;;1.90;;
18411;SDS011;27097;51.738;19.472;2023-05-31T05:40:15;5.38;;;1.92;;
18411;SDS011;27097;51.738;19.472;2023-05-31T05:42:42;3.95;;;1.50;;
18411;SDS011;27097;51.738;19.472;2023-05-31T05:45:11;4.50;;;1.88;;
18411;SDS011;27097;51.738;19.472;2023-05-31T05:47:38;4.75;;;1.50;;
18411;SDS011;27097;51.738;19.472;2023-05-31T05:50:06;6.60;;;1.52;;
18411;SDS011;27097;51.738;19.472;2023-05-31T05:52:33;6.25;;;1.52;;
18411;SDS011;27097;51.738;19.472;2023-05-31T05:55:00;2.58;;;1.25;;
18411;SDS011;27097;51.738;19.472;2023-05-31T05:57:29;5.25;;;1.73;;
18411;SDS011;27097;51.738;19.472;2023-05-31T05:59:56;4.10;;;1.65;;
18411;SDS011;27097;51.738;19.472;2023-05-31T06:02:24;6.10;;;1.88;;
18411;SDS011;27097;51.738;19.472;2023-05-31T06:04:51;9.45;;;1.77;;
18411;SDS011;27097;51.738;19.472;2023-05-31T06:07:18;7.20;;;2.47;;
18411;SDS011;27097;51.738;19.472;2023-05-31T06:09:46;3.35;;;1.70;;
18411;SDS011;27097;51.738;19.472;2023-05-31T06:12:13;6.43;;;1.60;;
18411;SDS011;27097;51.738;19.472;2023-05-31T06:14:40;3.30;;;2.13;;
18411;SDS011;27097;51.738;19.472;2023-05-31T06:17:07;10.90;;;2.17;;
18411;SDS011;27097;51.738;19.472;2023-05-31T06:19:35;7.35;;;2.40;;
18411;SDS011;27097;51.738;19.472;2023-05-31T06:22:03;7.95;;;1.92;;
18411;SDS011;27097;51.738;19.472;2023-05-31T06:24:30;5.10;;;1.83;;
18411;SDS011;27097;51.738;19.472;2023-05-31T06:26:57;17.45;;;2.00;;
18411;SDS011;27097;51.738;19.472;2023-05-31T06:29:24;6.03;;;1.80;;
18411;SDS011;27097;51.738;19.472;2023-05-31T06:31:51;8.60;;;1.92;;
18411;SDS011;27097;51.738;19.472;2023-05-31T06:34:17;9.55;;;2.13;;
18411;SDS011;27097;51.738;19.472;2023-05-31T06:36:46;11.95;;;2.03;;
18411;SDS011;27097;51.738;19.472;2023-05-31T06:39:13;6.32;;;1.80;;
18411;SDS011;27097;51.738;19.472;2023-05-31T06:41:40;8.68;;;1.83;;
18411;SDS011;27097;51.738;19.472;2023-05-31T06:44:07;6.10;;;1.80;;
18411;SDS011;27097;51.738;19.472;2023-05-31T06:46:33;5.97;;;1.93;;
18411;SDS011;27097;51.738;19.472;2023-05-31T06:49:00;8.75;;;1.73;;
18411;SDS011;27097;51.738;19.472;2023-05-31T06:51:27;9.18;;;1.92;;
18411;SDS011;27097;51.738;19.472;2023-05-31T06:53:55;5.38;;;1.83;;
18411;SDS011;27097;51.738;19.472;2023-05-31T06:56:23;5.40;;;1.55;;
18411;SDS011;27097;51.738;19.472;2023-05-31T06:58:51;10.98;;;1.63;;
18411;SDS011;27097;51.738;19.472;2023-05-31T07:01:17;6.15;;;1.85;;
18411;SDS011;27097;51.738;19.472;2023-05-31T07:03:44;7.05;;;1.70;;
18411;SDS011;27097;51.738;19.472;2023-05-31T07:06:11;5.50;;;1.90;;
18411;SDS011;27097;51.738;19.472;2023-05-31T07:08:38;7.07;;;1.73;;
18411;SDS011;27097;51.738;19.472;2023-05-31T07:11:07;5.43;;;2.00;;
18411;SDS011;27097;51.738;19.472;2023-05-31T07:13:33;9.77;;;1.70;;
18411;SDS011;27097;51.738;19.472;2023-05-31T07:16:00;5.60;;;1.70;;
18411;SDS011;27097;51.738;19.472;2023-05-31T07:18:27;3.67;;;1.65;;
18411;SDS011;27097;51.738;19.472;2023-05-31T07:20:54;4.13;;;1.40;;
18411;SDS011;27097;51.738;19.472;2023-05-31T07:23:22;8.48;;;1.50;;
18411;SDS011;27097;51.738;19.472;2023-05-31T07:25:49;10.60;;;1.70;;
18411;SDS011;27097;51.738;19.472;2023-05-31T07:28:18;7.13;;;1.58;;
18411;SDS011;27097;51.738;19.472;2023-05-31T07:30:44;6.07;;;1.70;;
18411;SDS011;27097;51.738;19.472;2023-05-31T07:33:11;7.57;;;2.00;;
18411;SDS011;27097;51.738;19.472;2023-05-31T07:35:38;3.38;;;1.50;;
18411;SDS011;27097;51.738;19.472;2023-05-31T07:38:05;2.97;;;1.60;;
18411;SDS011;27097;51.738;19.472;2023-05-31T07:40:32;7.63;;;1.50;;
18411;SDS011;27097;51.738;19.472;2023-05-31T07:42:59;6.10;;;1.80;;
18411;SDS011;27097;51.738;19.472;2023-05-31T07:45:27;9.80;;;1.65;;
18411;SDS011;27097;51.738;19.472;2023-05-31T07:47:55;8.73;;;1.50;;
18411;SDS011;27097;51.738;19.472;2023-05-31T07:50:23;7.80;;;1.98;;
18411;SDS011;27097;51.738;19.472;2023-05-31T07:52:50;4.50;;;1.20;;
18411;SDS011;27097;51.738;19.472;2023-05-31T07:55:17;4.88;;;1.55;;
18411;SDS011;27097;51.738;19.472;2023-05-31T07:57:44;5.93;;;1.58;;
18411;SDS011;27097;51.738;19.472;2023-05-31T08:00:12;3.63;;;1.52;;
18411;SDS011;27097;51.738;19.472;2023-05-31T08:02:40;3.40;;;1.30;;
18411;SDS011;27097;51.738;19.472;2023-05-31T08:05:08;6.93;;;1.70;;
18411;SDS011;27097;51.738;19.472;2023-05-31T08:07:35;3.13;;;1.60;;
18411;SDS011;27097;51.738;19.472;2023-05-31T08:10:02;5.18;;;1.42;;
18411;SDS011;27097;51.738;19.472;2023-05-31T08:12:30;7.18;;;1.65;;
18411;SDS011;27097;51.738;19.472;2023-05-31T08:15:00;7.40;;;1.52;;
18411;SDS011;27097;51.738;19.472;2023-05-31T08:17:27;7.10;;;1.58;;
18411;SDS011;27097;51.738;19.472;2023-05-31T08:19:55;3.67;;;1.35;;
18411;SDS011;27097;51.738;19.472;2023-05-31T08:22:22;5.50;;;1.30;;
18411;SDS011;27097;51.738;19.472;2023-05-31T08:24:49;3.33;;;1.70;;
18411;SDS011;27097;51.738;19.472;2023-05-31T08:27:16;6.90;;;1.70;;
18411;SDS011;27097;51.738;19.472;2023-05-31T08:29:43;5.70;;;1.50;;
18411;SDS011;27097;51.738;19.472;2023-05-31T08:32:10;6.20;;;1.60;;
18411;SDS011;27097;51.738;19.472;2023-05-31T08:34:37;3.30;;;1.40;;
18411;SDS011;27097;51.738;19.472;2023-05-31T08:37:06;5.38;;;1.33;;
18411;SDS011;27097;51.738;19.472;2023-05-31T08:39:33;5.05;;;1.42;;
18411;SDS011;27097;51.738;19.472;2023-05-31T08:42:02;3.53;;;1.73;;
18411;SDS011;27097;51.738;19.472;2023-05-31T08:44:31;2.72;;;1.30;;
18411;SDS011;27097;51.738;19.472;2023-05-31T08:47:12;7.55;;;1.50;;
18411;SDS011;27097;51.738;19.472;2023-05-31T08:49:45;4.03;;;1.40;;
18411;SDS011;27097;51.738;19.472;2023-05-31T08:52:14;4.70;;;1.50;;
18411;SDS011;27097;51.738;19.472;2023-05-31T08:54:43;5.45;;;1.55;;
18411;SDS011;27097;51.738;19.472;2023-05-31T08:57:11;4.10;;;1.00;;
18411;SDS011;27097;51.738;19.472;2023-05-31T08:59:38;3.88;;;1.27;;
18411;SDS011;27097;51.738;19.472;2023-05-31T09:02:05;5.32;;;1.10;;
18411;SDS011;27097;51.738;19.472;2023-05-31T09:04:35;3.42;;;1.15;;
18411;SDS011;27097;51.738;19.472;2023-05-31T09:07:02;5.82;;;1.80;;
18411;SDS011;27097;51.738;19.472;2023-05-31T09:09:31;3.67;;;1.50;;
18411;SDS011;27097;51.738;19.472;2023-05-31T09:11:58;6.32;;;1.83;;
18411;SDS011;27097;51.738;19.472;2023-05-31T09:14:25;6.88;;;1.30;;
18411;SDS011;27097;51.738;19.472;2023-05-31T09:16:52;4.10;;;1.40;;
18411;SDS011;27097;51.738;19.472;2023-05-31T09:19:20;3.05;;;1.42;;
18411;SDS011;27097;51.738;19.472;2023-05-31T09:21:47;5.82;;;1.35;;
18411;SDS011;27097;51.738;19.472;2023-05-31T09:24:14;2.95;;;1.50;;
18411;SDS011;27097;51.738;19.472;2023-05-31T09:26:46;2.78;;;1.20;;
18411;SDS011;27097;51.738;19.472;2023-05-31T09:29:13;3.17;;;1.50;;
18411;SDS011;27097;51.738;19.472;2023-05-31T09:31:41;8.77;;;1.70;;
18411;SDS011;27097;51.738;19.472;2023-05-31T09:34:22;8.32;;;1.67;;
18411;SDS011;27097;51.738;19.472;2023-05-31T09:36:50;13.52;;;2.08;;
18411;SDS011;27097;51.738;19.472;2023-05-31T09:39:17;8.00;;;2.17;;
18411;SDS011;27097;51.738;19.472;2023-05-31T09:41:46;7.20;;;1.63;;
18411;SDS011;27097;51.738;19.472;2023-05-31T09:44:15;7.28;;;2.13;;
18411;SDS011;27097;51.738;19.472;2023-05-31T09:46:44;7.47;;;2.10;;
18411;SDS011;27097;51.738;19.472;2023-05-31T09:49:11;12.25;;;2.20;;
18411;SDS011;27097;51.738;19.472;2023-05-31T09:51:38;6.35;;;1.98;;
18411;SDS011;27097;51.738;19.472;2023-05-31T09:54:09;7.57;;;1.70;;
18411;SDS011;27097;51.738;19.472;2023-05-31T09:56:37;8.00;;;1.88;;
18411;SDS011;27097;51.738;19.472;2023-05-31T09:59:07;10.32;;;1.95;;
18411;SDS011;27097;51.738;19.472;2023-05-31T10:01:36;7.53;;;1.60;;
18411;SDS011;27097;51.738;19.472;2023-05-31T10:04:03;6.97;;;1.70;;
18411;SDS011;27097;51.738;19.472;2023-05-31T10:06:31;7.32;;;2.25;;
18411;SDS011;27097;51.738;19.472;2023-05-31T10:09:00;8.20;;;1.90;;
18411;SDS011;27097;51.738;19.472;2023-05-31T10:11:28;6.30;;;1.85;;
18411;SDS011;27097;51.738;19.472;2023-05-31T10:14:00;6.40;;;1.73;;
18411;SDS011;27097;51.738;19.472;2023-05-31T10:16:32;4.60;;;1.30;;
18411;SDS011;27097;51.738;19.472;2023-05-31T10:19:06;2.67;;;1.52;;
18411;SDS011;27097;51.738;19.472;2023-05-31T10:21:36;4.70;;;1.60;;
18411;SDS011;27097;51.738;19.472;2023-05-31T10:24:09;3.47;;;1.38;;
18411;SDS011;27097;51.738;19.472;2023-05-31T10:26:47;5.85;;;1.50;;
18411;SDS011;27097;51.738;19.472;2023-05-31T10:29:23;3.10;;;1.35;;
18411;SDS011;27097;51.738;19.472;2023-05-31T10:31:55;6.88;;;1.33;;
18411;SDS011;27097;51.738;19.472;2023-05-31T10:34:27;3.80;;;1.50;;
18411;SDS011;27097;51.738;19.472;2023-05-31T10:36:57;5.18;;;1.70;;
18411;SDS011;27097;51.738;19.472;2023-05-31T10:39:25;2.75;;;1.45;;
18411;SDS011;27097;51.738;19.472;2023-05-31T10:41:59;3.47;;;1.40;;
18411;SDS011;27097;51.738;19.472;2023-05-31T10:44:36;8.98;;;1.55;;
18411;SDS011;27097;51.738;19.472;2023-05-31T10:47:09;4.03;;;1.52;;
18411;SDS011;27097;51.738;19.472;2023-05-31T10:49:37;3.75;;;1.52;;
18411;SDS011;27097;51.738;19.472;2023-05-31T10:52:08;4.30;;;1.70;;
18411;SDS011;27097;51.738;19.472;2023-05-31T10:54:35;3.28;;;1.48;;
18411;SDS011;27097;51.738;19.472;2023-05-31T10:57:05;2.10;;;1.17;;
18411;SDS011;27097;51.738;19.472;2023-05-31T10:59:41;3.40;;;1.38;;
18411;SDS011;27097;51.738;19.472;2023-05-31T11:02:12;3.83;;;1.60;;
18411;SDS011;27097;51.738;19.472;2023-05-31T11:04:40;5.15;;;1.52;;
18411;SDS011;27097;51.738;19.472;2023-05-31T11:07:11;3.72;;;1.33;;
18411;SDS011;27097;51.738;19.472;2023-05-31T11:09:41;4.68;;;1.40;;
18411;SDS011;27097;51.738;19.472;2023-05-31T11:12:30;3.28;;;1.27;;
18411;SDS011;27097;51.738;19.472;2023-05-31T11:14:58;2.03;;;1.20;;
18411;SDS011;27097;51.738;19.472;2023-05-31T11:17:28;4.28;;;1.40;;
18411;SDS011;27097;51.738;19.472;2023-05-31T11:19:56;3.63;;;1.38;;
18411;SDS011;27097;51.738;19.472;2023-05-31T11:22:26;3.35;;;1.30;;
18411;SDS011;27097;51.738;19.472;2023-05-31T11:24:54;3.20;;;1.55;;
18411;SDS011;27097;51.738;19.472;2023-05-31T11:27:23;3.13;;;1.35;;
18411;SDS011;27097;51.738;19.472;2023-05-31T11:30:00;2.25;;;1.40;;
18411;SDS011;27097;51.738;19.472;2023-05-31T11:35:34;3.00;;;1.33;;
18411;SDS011;27097;51.738;19.472;2023-05-31T11:38:05;2.78;;;1.25;;
18411;SDS011;27097;51.738;19.472;2023-05-31T11:40:33;5.03;;;1.30;;
18411;SDS011;27097;51.738;19.472;2023-05-31T11:43:02;2.92;;;1.33;;
18411;SDS011;27097;51.738;19.472;2023-05-31T11:45:31;3.22;;;1.20;;
18411;SDS011;27097;51.738;19.472;2023-05-31T11:48:02;1.70;;;1.10;;
18411;SDS011;27097;51.738;19.472;2023-05-31T11:50:40;1.65;;;1.00;;
18411;SDS011;27097;51.738;19.472;2023-05-31T11:53:09;1.65;;;1.40;;
18411;SDS011;27097;51.738;19.472;2023-05-31T11:55:36;3.17;;;1.10;;
18411;SDS011;27097;51.738;19.472;2023-05-31T11:58:04;3.05;;;1.13;;
18411;SDS011;27097;51.738;19.472;2023-05-31T12:00:32;2.97;;;1.30;;
18411;SDS011;27097;51.738;19.472;2023-05-31T12:02:59;2.85;;;1.17;;
18411;SDS011;27097;51.738;19.472;2023-05-31T12:05:29;1.95;;;1.13;;
18411;SDS011;27097;51.738;19.472;2023-05-31T12:08:00;2.85;;;1.33;;
18411;SDS011;27097;51.738;19.472;2023-05-31T12:10:27;2.85;;;1.35;;
18411;SDS011;27097;51.738;19.472;2023-05-31T12:12:57;2.58;;;1.20;;
18411;SDS011;27097;51.738;19.472;2023-05-31T12:15:24;3.60;;;1.48;;
18411;SDS011;27097;51.738;19.472;2023-05-31T12:17:57;3.20;;;1.67;;
18411;SDS011;27097;51.738;19.472;2023-05-31T12:20:26;3.40;;;1.20;;
18411;SDS011;27097;51.738;19.472;2023-05-31T12:22:56;2.03;;;1.38;;
18411;SDS011;27097;51.738;19.472;2023-05-31T12:25:37;2.47;;;1.20;;
18411;SDS011;27097;51.738;19.472;2023-05-31T12:28:10;4.50;;;1.58;;
18411;SDS011;27097;51.738;19.472;2023-05-31T12:30:40;2.83;;;0.90;;
18411;SDS011;27097;51.738;19.472;2023-05-31T12:33:09;4.25;;;1.48;;
18411;SDS011;27097;51.738;19.472;2023-05-31T12:35:39;2.78;;;1.50;;
18411;SDS011;27097;51.738;19.472;2023-05-31T12:38:06;3.55;;;1.40;;
18411;SDS011;27097;51.738;19.472;2023-05-31T12:40:38;3.20;;;1.33;;
18411;SDS011;27097;51.738;19.472;2023-05-31T12:43:06;2.75;;;1.25;;
18411;SDS011;27097;51.738;19.472;2023-05-31T12:45:37;2.28;;;1.33;;
18411;SDS011;27097;51.738;19.472;2023-05-31T12:48:06;3.55;;;1.23;;
18411;SDS011;27097;51.738;19.472;2023-05-31T12:50:35;2.58;;;1.20;;
18411;SDS011;27097;51.738;19.472;2023-05-31T12:53:04;2.63;;;1.30;;
18411;SDS011;27097;51.738;19.472;2023-05-31T12:55:33;4.43;;;1.40;;
18411;SDS011;27097;51.738;19.472;2023-05-31T12:58:01;3.55;;;1.30;;
18411;SDS011;27097;51.738;19.472;2023-05-31T13:00:28;3.28;;;1.30;;
18411;SDS011;27097;51.738;19.472;2023-05-31T13:02:55;1.80;;;1.17;;
18411;SDS011;27097;51.738;19.472;2023-05-31T13:05:22;3.58;;;1.40;;
18411;SDS011;27097;51.738;19.472;2023-05-31T13:07:51;3.72;;;1.50;;
18411;SDS011;27097;51.738;19.472;2023-05-31T13:10:18;2.90;;;1.27;;
18411;SDS011;27097;51.738;19.472;2023-05-31T13:12:45;6.15;;;1.35;;
18411;SDS011;27097;51.738;19.472;2023-05-31T13:15:14;7.38;;;1.60;;
18411;SDS011;27097;51.738;19.472;2023-05-31T13:17:44;4.60;;;1.40;;
18411;SDS011;27097;51.738;19.472;2023-05-31T13:20:11;5.93;;;1.27;;
18411;SDS011;27097;51.738;19.472;2023-05-31T13:22:38;8.18;;;1.45;;
18411;SDS011;27097;51.738;19.472;2023-05-31T13:25:06;8.57;;;1.30;;
18411;SDS011;27097;51.738;19.472;2023-05-31T13:27:34;9.50;;;1.45;;
18411;SDS011;27097;51.738;19.472;2023-05-31T13:30:01;5.60;;;1.20;;
18411;SDS011;27097;51.738;19.472;2023-05-31T13:32:30;8.70;;;1.42;;
18411;SDS011;27097;51.738;19.472;2023-05-31T13:34:57;6.35;;;1.35;;
18411;SDS011;27097;51.738;19.472;2023-05-31T13:37:24;6.60;;;1.30;;
18411;SDS011;27097;51.738;19.472;2023-05-31T13:39:51;6.13;;;2.10;;
18411;SDS011;27097;51.738;19.472;2023-05-31T13:42:20;5.43;;;1.55;;
18411;SDS011;27097;51.738;19.472;2023-05-31T13:44:50;4.38;;;1.30;;
18411;SDS011;27097;51.738;19.472;2023-05-31T13:47:17;5.90;;;1.38;;
18411;SDS011;27097;51.738;19.472;2023-05-31T13:49:45;7.45;;;1.58;;
18411;SDS011;27097;51.738;19.472;2023-05-31T13:52:13;6.03;;;1.30;;
18411;SDS011;27097;51.738;19.472;2023-05-31T13:54:41;3.42;;;1.40;;
18411;SDS011;27097;51.738;19.472;2023-05-31T13:57:08;4.82;;;1.52;;
18411;SDS011;27097;51.738;19.472;2023-05-31T13:59:35;5.47;;;1.40;;
18411;SDS011;27097;51.738;19.472;2023-05-31T14:02:01;6.43;;;1.42;;
18411;SDS011;27097;51.738;19.472;2023-05-31T14:04:28;6.72;;;1.20;;
18411;SDS011;27097;51.738;19.472;2023-05-31T14:06:58;2.58;;;1.38;;
18411;SDS011;27097;51.738;19.472;2023-05-31T14:09:24;3.47;;;1.27;;
18411;SDS011;27097;51.738;19.472;2023-05-31T14:11:52;3.30;;;1.40;;
18411;SDS011;27097;51.738;19.472;2023-05-31T14:14:19;5.65;;;1.30;;
18411;SDS011;27097;51.738;19.472;2023-05-31T14:16:46;3.72;;;1.40;;
18411;SDS011;27097;51.738;19.472;2023-05-31T14:19:13;5.63;;;1.17;;
18411;SDS011;27097;51.738;19.472;2023-05-31T14:21:41;3.67;;;1.20;;
18411;SDS011;27097;51.738;19.472;2023-05-31T14:24:09;4.70;;;1.23;;
18411;SDS011;27097;51.738;19.472;2023-05-31T14:26:36;4.55;;;1.20;;
18411;SDS011;27097;51.738;19.472;2023-05-31T14:29:03;3.72;;;1.27;;
18411;SDS011;27097;51.738;19.472;2023-05-31T14:31:30;3.33;;;1.17;;
18411;SDS011;27097;51.738;19.472;2023-05-31T14:33:57;1.50;;;1.00;;
18411;SDS011;27097;51.738;19.472;2023-05-31T14:36:24;5.40;;;1.27;;
18411;SDS011;27097;51.738;19.472;2023-05-31T14:38:51;2.15;;;1.17;;
18411;SDS011;27097;51.738;19.472;2023-05-31T14:41:19;2.38;;;1.20;;
18411;SDS011;27097;51.738;19.472;2023-05-31T14:43:46;4.13;;;1.30;;
18411;SDS011;27097;51.738;19.472;2023-05-31T14:46:13;4.10;;;1.13;;